sensor_id;sensor_type;location;lat;lon;timestamp;pressure;altitude;pressure_sealevel;temperature
84354;BMP280;74538;43.522;1.516;2023-12-20T00:01:16;101045.66;;;19.66
84354;BMP280;74538;43.522;1.516;2023-12-20T00:03:41;101028.47;;;19.64
84354;BMP280;74538;43.522;1.516;2023-12-20T00:06:07;101026.19;;;19.62
84354;BMP280;74538;43.522;1.516;2023-12-20T00:08:32;101020.50;;;19.60
84354;BMP280;74538;43.522;1.516;2023-12-20T00:10:58;101023.19;;;19.60
84354;BMP280;74538;43.522;1.516;2023-12-20T00:13:23;101004.00;;;19.58
84354;BMP280;74538;43.522;1.516;2023-12-20T00:15:48;101005.63;;;19.56
84354;BMP280;74538;43.522;1.516;2023-12-20T00:18:14;101006.81;;;19.55
84354;BMP280;74538;43.522;1.516;2023-12-20T00:20:39;101009.91;;;19.53
84354;BMP280;74538;43.522;1.516;2023-12-20T00:23:04;101016.44;;;19.52
84354;BMP280;74538;43.522;1.516;2023-12-20T00:25:30;101007.28;;;19.50
84354;BMP280;74538;43.522;1.516;2023-12-20T00:27:55;101005.78;;;19.49
84354;BMP280;74538;43.522;1.516;2023-12-20T00:30:21;100992.78;;;19.47
84354;BMP280;74538;43.522;1.516;2023-12-20T00:32:46;100994.34;;;19.45
84354;BMP280;74538;43.522;1.516;2023-12-20T00:35:15;100988.22;;;19.44
84354;BMP280;74538;43.522;1.516;2023-12-20T00:37:44;100977.16;;;19.42
84354;BMP280;74538;43.522;1.516;2023-12-20T00:40:10;100972.94;;;19.41
84354;BMP280;74538;43.522;1.516;2023-12-20T00:42:35;100971.44;;;19.40
84354;BMP280;74538;43.522;1.516;2023-12-20T00:45:01;100974.56;;;19.39
84354;BMP280;74538;43.522;1.516;2023-12-20T00:47:27;100972.28;;;19.37
84354;BMP280;74538;43.522;1.516;2023-12-20T00:49:52;100963.88;;;19.35
84354;BMP280;74538;43.522;1.516;2023-12-20T00:52:18;100958.94;;;19.34
84354;BMP280;74538;43.522;1.516;2023-12-20T00:54:44;100950.13;;;19.33
84354;BMP280;74538;43.522;1.516;2023-12-20T00:57:10;100947.84;;;19.31
84354;BMP280;74538;43.522;1.516;2023-12-20T00:59:35;100950.22;;;19.29
84354;BMP280;74538;43.522;1.516;2023-12-20T01:02:01;100958.69;;;19.28
84354;BMP280;74538;43.522;1.516;2023-12-20T01:04:27;100944.91;;;19.26
84354;BMP280;74538;43.522;1.516;2023-12-20T01:06:52;100954.94;;;19.25
84354;BMP280;74538;43.522;1.516;2023-12-20T01:09:18;100939.97;;;19.24
84354;BMP280;74538;43.522;1.516;2023-12-20T01:11:44;100951.16;;;19.23
84354;BMP280;74538;43.522;1.516;2023-12-20T01:14:09;100942.72;;;19.21
84354;BMP280;74538;43.522;1.516;2023-12-20T01:16:35;100933.94;;;19.20
84354;BMP280;74538;43.522;1.516;2023-12-20T01:19:00;100940.91;;;19.18
84354;BMP280;74538;43.522;1.516;2023-12-20T01:21:25;100936.69;;;19.17
84354;BMP280;74538;43.522;1.516;2023-12-20T01:23:51;100933.66;;;19.15
84354;BMP280;74538;43.522;1.516;2023-12-20T01:26:16;100922.16;;;19.14
84354;BMP280;74538;43.522;1.516;2023-12-20T01:28:42;100925.25;;;19.13
84354;BMP280;74538;43.522;1.516;2023-12-20T01:31:08;100932.25;;;19.10
84354;BMP280;74538;43.522;1.516;2023-12-20T01:33:33;100930.75;;;19.09
84354;BMP280;74538;43.522;1.516;2023-12-20T01:35:59;100924.63;;;19.09
84354;BMP280;74538;43.522;1.516;2023-12-20T01:38:25;100923.09;;;19.08
84354;BMP280;74538;43.522;1.516;2023-12-20T01:40:50;100913.94;;;19.05
84354;BMP280;74538;43.522;1.516;2023-12-20T01:43:16;100919.31;;;19.05
84354;BMP280;74538;43.522;1.516;2023-12-20T01:45:41;100919.75;;;19.04
84354;BMP280;74538;43.522;1.516;2023-12-20T01:48:08;100910.19;;;19.03
84354;BMP280;74538;43.522;1.516;2023-12-20T01:50:35;100907.16;;;19.01
84354;BMP280;74538;43.522;1.516;2023-12-20T01:53:03;100901.03;;;19.00
84354;BMP280;74538;43.522;1.516;2023-12-20T01:55:31;100905.31;;;18.98
84354;BMP280;74538;43.522;1.516;2023-12-20T01:57:57;100909.19;;;18.97
84354;BMP280;74538;43.522;1.516;2023-12-20T02:00:23;100904.97;;;18.95
84354;BMP280;74538;43.522;1.516;2023-12-20T02:02:53;100900.78;;;18.94
84354;BMP280;74538;43.522;1.516;2023-12-20T02:05:18;100898.53;;;18.93
84354;BMP280;74538;43.522;1.516;2023-12-20T02:07:44;100894.31;;;18.92
84354;BMP280;74538;43.522;1.516;2023-12-20T02:10:09;100875.94;;;18.90
84354;BMP280;74538;43.522;1.516;2023-12-20T02:12:35;100879.78;;;18.89
84354;BMP280;74538;43.522;1.516;2023-12-20T02:15:01;100878.28;;;18.88
84354;BMP280;74538;43.522;1.516;2023-12-20T02:17:27;100876.78;;;18.87
84354;BMP280;74538;43.522;1.516;2023-12-20T02:19:53;100871.84;;;18.86
84354;BMP280;74538;43.522;1.516;2023-12-20T02:22:18;100866.88;;;18.84
84354;BMP280;74538;43.522;1.516;2023-12-20T02:24:44;100869.97;;;18.83
84354;BMP280;74538;43.522;1.516;2023-12-20T02:27:09;100860.41;;;18.82
84354;BMP280;74538;43.522;1.516;2023-12-20T02:29:35;100855.47;;;18.80
84354;BMP280;74538;43.522;1.516;2023-12-20T02:32:01;100848.59;;;18.79
84354;BMP280;74538;43.522;1.516;2023-12-20T02:34:27;100840.97;;;18.78
84354;BMP280;74538;43.522;1.516;2023-12-20T02:36:52;100838.66;;;18.76
84354;BMP280;74538;43.522;1.516;2023-12-20T02:39:19;100842.53;;;18.75
84354;BMP280;74538;43.522;1.516;2023-12-20T02:41:44;100844.91;;;18.73
84354;BMP280;74538;43.522;1.516;2023-12-20T02:44:09;100846.06;;;18.72
84354;BMP280;74538;43.522;1.516;2023-12-20T02:46:35;100837.25;;;18.72
84354;BMP280;74538;43.522;1.516;2023-12-20T02:49:00;100835.78;;;18.71
84354;BMP280;74538;43.522;1.516;2023-12-20T02:51:26;100836.16;;;18.69
84354;BMP280;74538;43.522;1.516;2023-12-20T02:53:51;100826.59;;;18.68
84354;BMP280;74538;43.522;1.516;2023-12-20T02:56:16;100840.44;;;18.67
84354;BMP280;74538;43.522;1.516;2023-12-20T02:58:42;100834.34;;;18.66
84354;BMP280;74538;43.522;1.516;2023-12-20T03:01:07;100816.72;;;18.65
84354;BMP280;74538;43.522;1.516;2023-12-20T03:03:32;100815.63;;;18.63
84354;BMP280;74538;43.522;1.516;2023-12-20T03:06:00;100812.94;;;18.63
84354;BMP280;74538;43.522;1.516;2023-12-20T03:08:25;100794.56;;;18.61
84354;BMP280;74538;43.522;1.516;2023-12-20T03:10:51;100798.44;;;18.60
84354;BMP280;74538;43.522;1.516;2023-12-20T03:13:16;100790.78;;;18.58
84354;BMP280;74538;43.522;1.516;2023-12-20T03:15:42;100784.66;;;18.58
84354;BMP280;74538;43.522;1.516;2023-12-20T03:18:07;100797.31;;;18.57
84354;BMP280;74538;43.522;1.516;2023-12-20T03:20:33;100781.66;;;18.56
84354;BMP280;74538;43.522;1.516;2023-12-20T03:23:00;100786.28;;;18.55
84354;BMP280;74538;43.522;1.516;2023-12-20T03:25:25;100787.84;;;18.53
84354;BMP280;74538;43.522;1.516;2023-12-20T03:27:51;100789.03;;;18.52
84354;BMP280;74538;43.522;1.516;2023-12-20T03:30:17;100782.16;;;18.51
84354;BMP280;74538;43.522;1.516;2023-12-20T03:32:42;100782.16;;;18.51
84354;BMP280;74538;43.522;1.516;2023-12-20T03:35:08;100785.25;;;18.49
84354;BMP280;74538;43.522;1.516;2023-12-20T03:37:33;100774.22;;;18.47
84354;BMP280;74538;43.522;1.516;2023-12-20T03:39:58;100773.44;;;18.47
84354;BMP280;74538;43.522;1.516;2023-12-20T03:42:24;100771.94;;;18.46
84354;BMP280;74538;43.522;1.516;2023-12-20T03:44:49;100781.16;;;18.45
84354;BMP280;74538;43.522;1.516;2023-12-20T03:47:15;100778.16;;;18.43
84354;BMP280;74538;43.522;1.516;2023-12-20T03:49:40;100781.25;;;18.41
84354;BMP280;74538;43.522;1.516;2023-12-20T03:52:05;100775.88;;;18.41
84354;BMP280;74538;43.522;1.516;2023-12-20T03:54:31;100777.81;;;18.41
84354;BMP280;74538;43.522;1.516;2023-12-20T03:56:56;100773.59;;;18.40
84354;BMP280;74538;43.522;1.516;2023-12-20T03:59:22;100775.97;;;18.38
84354;BMP280;74538;43.522;1.516;2023-12-20T04:01:47;100770.59;;;18.38
84354;BMP280;74538;43.522;1.516;2023-12-20T04:04:13;100768.31;;;18.36
84354;BMP280;74538;43.522;1.516;2023-12-20T04:06:38;100749.97;;;18.35
84354;BMP280;74538;43.522;1.516;2023-12-20T04:09:04;100764.53;;;18.34
84354;BMP280;74538;43.522;1.516;2023-12-20T04:11:29;100752.31;;;18.33
84354;BMP280;74538;43.522;1.516;2023-12-20T04:13:55;100746.59;;;18.31
84354;BMP280;74538;43.522;1.516;2023-12-20T04:16:21;100747.75;;;18.30
84354;BMP280;74538;43.522;1.516;2023-12-20T04:18:46;100747.75;;;18.30
84354;BMP280;74538;43.522;1.516;2023-12-20T04:21:11;100749.69;;;18.29
84354;BMP280;74538;43.522;1.516;2023-12-20T04:23:37;100743.25;;;18.27
84354;BMP280;74538;43.522;1.516;2023-12-20T04:26:02;100730.59;;;18.27
84354;BMP280;74538;43.522;1.516;2023-12-20T04:28:28;100730.25;;;18.25
84354;BMP280;74538;43.522;1.516;2023-12-20T04:30:55;100735.28;;;18.23
84354;BMP280;74538;43.522;1.516;2023-12-20T04:33:21;100731.09;;;18.22
84354;BMP280;74538;43.522;1.516;2023-12-20T04:35:47;100724.97;;;18.21
84354;BMP280;74538;43.522;1.516;2023-12-20T04:38:12;100722.72;;;18.20
84354;BMP280;74538;43.522;1.516;2023-12-20T04:40:38;100721.22;;;18.19
84354;BMP280;74538;43.522;1.516;2023-12-20T04:43:05;100722.72;;;18.20
84354;BMP280;74538;43.522;1.516;2023-12-20T04:45:30;100727.00;;;18.17
84354;BMP280;74538;43.522;1.516;2023-12-20T04:47:56;100725.47;;;18.16
84354;BMP280;74538;43.522;1.516;2023-12-20T04:50:21;100717.41;;;18.16
84354;BMP280;74538;43.522;1.516;2023-12-20T04:52:47;100712.47;;;18.15
84354;BMP280;74538;43.522;1.516;2023-12-20T04:55:12;100714.41;;;18.14
84354;BMP280;74538;43.522;1.516;2023-12-20T04:57:38;100707.53;;;18.13
84354;BMP280;74538;43.522;1.516;2023-12-20T05:00:04;100704.53;;;18.11
84354;BMP280;74538;43.522;1.516;2023-12-20T05:02:30;100705.28;;;18.12
84354;BMP280;74538;43.522;1.516;2023-12-20T05:04:55;100704.53;;;18.11
84354;BMP280;74538;43.522;1.516;2023-12-20T05:07:20;100702.25;;;18.10
84354;BMP280;74538;43.522;1.516;2023-12-20T05:09:46;100696.13;;;18.09
84354;BMP280;74538;43.522;1.516;2023-12-20T05:12:11;100699.22;;;18.08
84354;BMP280;74538;43.522;1.516;2023-12-20T05:14:36;100701.91;;;18.08
84354;BMP280;74538;43.522;1.516;2023-12-20T05:17:02;100704.59;;;18.08
84354;BMP280;74538;43.522;1.516;2023-12-20T05:19:28;100702.69;;;18.08
84354;BMP280;74538;43.522;1.516;2023-12-20T05:21:54;100702.25;;;18.10
84354;BMP280;74538;43.522;1.516;2023-12-20T05:24:19;100711.47;;;18.09
84354;BMP280;74538;43.522;1.516;2023-12-20T05:26:45;100707.63;;;18.10
84354;BMP280;74538;43.522;1.516;2023-12-20T05:29:10;100704.94;;;18.10
84354;BMP280;74538;43.522;1.516;2023-12-20T05:31:35;100714.50;;;18.11
84354;BMP280;74538;43.522;1.516;2023-12-20T05:34:01;100716.41;;;18.10
84354;BMP280;74538;43.522;1.516;2023-12-20T05:36:26;100725.97;;;18.11
84354;BMP280;74538;43.522;1.516;2023-12-20T05:38:52;100719.44;;;18.12
84354;BMP280;74538;43.522;1.516;2023-12-20T05:41:18;100716.75;;;18.12
84354;BMP280;74538;43.522;1.516;2023-12-20T05:43:43;100720.97;;;18.13
84354;BMP280;74538;43.522;1.516;2023-12-20T05:46:12;100733.59;;;18.13
84354;BMP280;74538;43.522;1.516;2023-12-20T05:48:37;100733.59;;;18.13
84354;BMP280;74538;43.522;1.516;2023-12-20T05:51:03;100742.41;;;18.13
84354;BMP280;74538;43.522;1.516;2023-12-20T05:53:28;100741.22;;;18.14
84354;BMP280;74538;43.522;1.516;2023-12-20T05:55:54;100749.25;;;18.14
84354;BMP280;74538;43.522;1.516;2023-12-20T05:58:19;100752.69;;;18.15
84354;BMP280;74538;43.522;1.516;2023-12-20T06:00:45;100750.78;;;18.15
84354;BMP280;74538;43.522;1.516;2023-12-20T06:03:10;100758.81;;;18.15
84354;BMP280;74538;43.522;1.516;2023-12-20T06:05:35;100758.81;;;18.15
84354;BMP280;74538;43.522;1.516;2023-12-20T06:08:01;100762.25;;;18.16
84354;BMP280;74538;43.522;1.516;2023-12-20T06:10:28;100777.97;;;18.17
84354;BMP280;74538;43.522;1.516;2023-12-20T06:12:53;100784.47;;;18.16
84354;BMP280;74538;43.522;1.516;2023-12-20T06:15:19;100782.16;;;18.18
84354;BMP280;74538;43.522;1.516;2023-12-20T06:17:45;100784.84;;;18.18
84354;BMP280;74538;43.522;1.516;2023-12-20T06:20:12;100787.53;;;18.18
84354;BMP280;74538;43.522;1.516;2023-12-20T06:22:38;100795.56;;;18.18
84354;BMP280;74538;43.522;1.516;2023-12-20T06:25:04;100800.50;;;18.20
84354;BMP280;74538;43.522;1.516;2023-12-20T06:27:30;100782.47;;;18.20
84354;BMP280;74538;43.522;1.516;2023-12-20T06:29:57;100801.25;;;18.20
84354;BMP280;74538;43.522;1.516;2023-12-20T06:32:23;100802.75;;;18.21
84354;BMP280;74538;43.522;1.516;2023-12-20T06:34:49;100810.81;;;18.21
84354;BMP280;74538;43.522;1.516;2023-12-20T06:37:15;100811.97;;;18.20
84354;BMP280;74538;43.522;1.516;2023-12-20T06:39:40;100816.16;;;18.21
84354;BMP280;74538;43.522;1.516;2023-12-20T06:42:06;100817.69;;;18.22
84354;BMP280;74538;43.522;1.516;2023-12-20T06:44:31;100826.50;;;18.23
84354;BMP280;74538;43.522;1.516;2023-12-20T06:46:57;100824.56;;;18.23
84354;BMP280;74538;43.522;1.516;2023-12-20T06:49:23;100820.69;;;18.24
84354;BMP280;74538;43.522;1.516;2023-12-20T06:51:48;100830.66;;;18.24
84354;BMP280;74538;43.522;1.516;2023-12-20T06:54:14;100834.09;;;18.24
84354;BMP280;74538;43.522;1.516;2023-12-20T06:56:39;100838.31;;;18.26
84354;BMP280;74538;43.522;1.516;2023-12-20T06:59:06;100836.78;;;18.24
84354;BMP280;74538;43.522;1.516;2023-12-20T07:01:31;100850.56;;;18.27
84354;BMP280;74538;43.522;1.516;2023-12-20T07:03:57;100842.09;;;18.28
84354;BMP280;74538;43.522;1.516;2023-12-20T07:06:22;100855.03;;;18.33
84354;BMP280;74538;43.522;1.516;2023-12-20T07:08:48;100860.22;;;18.40
84354;BMP280;74538;43.522;1.516;2023-12-20T07:11:13;100865.84;;;18.46
84354;BMP280;74538;43.522;1.516;2023-12-20T07:13:39;100870.63;;;18.54
84354;BMP280;74538;43.522;1.516;2023-12-20T07:16:04;100881.94;;;18.62
84354;BMP280;74538;43.522;1.516;2023-12-20T07:18:30;100887.94;;;18.70
84354;BMP280;74538;43.522;1.516;2023-12-20T07:20:55;100887.00;;;18.76
84354;BMP280;74538;43.522;1.516;2023-12-20T07:23:21;100882.22;;;18.84
84354;BMP280;74538;43.522;1.516;2023-12-20T07:25:46;100898.91;;;18.91
84354;BMP280;74538;43.522;1.516;2023-12-20T07:28:12;100908.75;;;18.98
84354;BMP280;74538;43.522;1.516;2023-12-20T07:30:37;100906.31;;;19.04
84354;BMP280;74538;43.522;1.516;2023-12-20T07:33:03;100918.50;;;19.08
84354;BMP280;74538;43.522;1.516;2023-12-20T07:35:28;100916.91;;;19.11
84354;BMP280;74538;43.522;1.516;2023-12-20T07:37:54;100922.53;;;19.16
84354;BMP280;74538;43.522;1.516;2023-12-20T07:40:19;100931.16;;;19.24
84354;BMP280;74538;43.522;1.516;2023-12-20T07:42:46;100937.50;;;19.30
84354;BMP280;74538;43.522;1.516;2023-12-20T07:45:12;100939.28;;;19.37
84354;BMP280;74538;43.522;1.516;2023-12-20T07:47:37;100946.41;;;19.43
84354;BMP280;74538;43.522;1.516;2023-12-20T07:50:03;100952.78;;;19.49
84354;BMP280;74538;43.522;1.516;2023-12-20T07:52:30;100966.06;;;19.56
84354;BMP280;74538;43.522;1.516;2023-12-20T07:54:55;100965.53;;;19.61
84354;BMP280;74538;43.522;1.516;2023-12-20T07:57:21;100977.25;;;19.67
84354;BMP280;74538;43.522;1.516;2023-12-20T07:59:47;100980.56;;;19.59
84354;BMP280;74538;43.522;1.516;2023-12-20T08:02:12;100988.22;;;19.44
84354;BMP280;74538;43.522;1.516;2023-12-20T08:04:37;100995.63;;;19.40
84354;BMP280;74538;43.522;1.516;2023-12-20T08:07:03;100995.53;;;19.44
84354;BMP280;74538;43.522;1.516;2023-12-20T08:09:29;101002.03;;;19.46
84354;BMP280;74538;43.522;1.516;2023-12-20T08:11:55;101009.56;;;19.51
84354;BMP280;74538;43.522;1.516;2023-12-20T08:14:21;101010.25;;;19.55
84354;BMP280;74538;43.522;1.516;2023-12-20T08:16:46;101021.66;;;19.59
84354;BMP280;74538;43.522;1.516;2023-12-20T08:19:12;101032.31;;;19.63
84354;BMP280;74538;43.522;1.516;2023-12-20T08:21:38;101036.09;;;19.65
84354;BMP280;74538;43.522;1.516;2023-12-20T08:24:04;101045.28;;;19.68
84354;BMP280;74538;43.522;1.516;2023-12-20T08:26:30;101038.28;;;19.71
84354;BMP280;74538;43.522;1.516;2023-12-20T08:28:55;101051.31;;;19.72
84354;BMP280;74538;43.522;1.516;2023-12-20T08:31:21;101063.13;;;19.75
84354;BMP280;74538;43.522;1.516;2023-12-20T08:33:47;101068.88;;;19.77
84354;BMP280;74538;43.522;1.516;2023-12-20T08:36:14;101065.75;;;19.78
84354;BMP280;74538;43.522;1.516;2023-12-20T08:38:40;101074.91;;;19.81
84354;BMP280;74538;43.522;1.516;2023-12-20T08:41:06;101084.06;;;19.83
84354;BMP280;74538;43.522;1.516;2023-12-20T08:43:34;101095.59;;;19.84
84354;BMP280;74538;43.522;1.516;2023-12-20T08:46:00;101099.38;;;19.86
84354;BMP280;74538;43.522;1.516;2023-12-20T08:48:25;101096.22;;;19.88
84354;BMP280;74538;43.522;1.516;2023-12-20T08:50:51;101103.88;;;19.89
84354;BMP280;74538;43.522;1.516;2023-12-20T08:53:20;101114.25;;;19.91
84354;BMP280;74538;43.522;1.516;2023-12-20T08:55:46;101122.63;;;19.93
84354;BMP280;74538;43.522;1.516;2023-12-20T08:58:12;101135.66;;;19.94
84354;BMP280;74538;43.522;1.516;2023-12-20T09:00:37;101129.88;;;19.96
84354;BMP280;74538;43.522;1.516;2023-12-20T09:03:04;101130.22;;;19.98
84354;BMP280;74538;43.522;1.516;2023-12-20T09:05:30;101150.56;;;19.99
84354;BMP280;74538;43.522;1.516;2023-12-20T09:07:55;101151.31;;;19.99
84354;BMP280;74538;43.522;1.516;2023-12-20T09:10:21;101148.94;;;20.01
84354;BMP280;74538;43.522;1.516;2023-12-20T09:12:53;101156.59;;;20.03
84354;BMP280;74538;43.522;1.516;2023-12-20T09:15:25;101164.25;;;20.04
84354;BMP280;74538;43.522;1.516;2023-12-20T09:17:52;101168.47;;;20.05
84354;BMP280;74538;43.522;1.516;2023-12-20T09:20:18;101179.56;;;20.08
84354;BMP280;74538;43.522;1.516;2023-12-20T09:22:43;101184.50;;;20.09
84354;BMP280;74538;43.522;1.516;2023-12-20T09:25:12;101184.06;;;20.11
84354;BMP280;74538;43.522;1.516;2023-12-20T09:27:38;101193.25;;;20.13
84354;BMP280;74538;43.522;1.516;2023-12-20T09:30:04;101201.66;;;20.15
84354;BMP280;74538;43.522;1.516;2023-12-20T09:32:31;101203.19;;;20.16
84354;BMP280;74538;43.522;1.516;2023-12-20T09:34:56;101204.69;;;20.17
84354;BMP280;74538;43.522;1.516;2023-12-20T09:37:25;101201.56;;;20.19
84354;BMP280;74538;43.522;1.516;2023-12-20T09:39:51;101200.38;;;20.20
84354;BMP280;74538;43.522;1.516;2023-12-20T09:42:24;101202.69;;;20.21
84354;BMP280;74538;43.522;1.516;2023-12-20T09:44:53;101205.69;;;20.23
84354;BMP280;74538;43.522;1.516;2023-12-20T09:47:20;101207.19;;;20.24
84354;BMP280;74538;43.522;1.516;2023-12-20T09:49:54;101206.03;;;20.25
84354;BMP280;74538;43.522;1.516;2023-12-20T09:52:21;101210.22;;;20.26
84354;BMP280;74538;43.522;1.516;2023-12-20T09:54:49;101215.19;;;20.28
84354;BMP280;74538;43.522;1.516;2023-12-20T09:57:15;101206.72;;;20.29
84354;BMP280;74538;43.522;1.516;2023-12-20T09:59:40;101210.88;;;20.30
84354;BMP280;74538;43.522;1.516;2023-12-20T10:02:10;101219.31;;;20.32
84354;BMP280;74538;43.522;1.516;2023-12-20T10:04:39;101218.13;;;20.33
84354;BMP280;74538;43.522;1.516;2023-12-20T10:07:07;101225.00;;;20.34
84354;BMP280;74538;43.522;1.516;2023-12-20T10:09:33;101214.59;;;20.36
84354;BMP280;74538;43.522;1.516;2023-12-20T10:11:59;101222.25;;;20.38
84354;BMP280;74538;43.522;1.516;2023-12-20T10:14:25;101221.81;;;20.39
84354;BMP280;74538;43.522;1.516;2023-12-20T10:16:50;101221.38;;;20.41
84354;BMP280;74538;43.522;1.516;2023-12-20T10:19:19;101215.59;;;20.42
84354;BMP280;74538;43.522;1.516;2023-12-20T10:21:44;101217.09;;;20.43
84354;BMP280;74538;43.522;1.516;2023-12-20T10:24:16;101232.09;;;20.45
84354;BMP280;74538;43.522;1.516;2023-12-20T10:26:42;101221.66;;;20.47
84354;BMP280;74538;43.522;1.516;2023-12-20T10:29:07;101226.16;;;20.50
84354;BMP280;74538;43.522;1.516;2023-12-20T10:31:34;101222.31;;;20.51
84354;BMP280;74538;43.522;1.516;2023-12-20T10:34:04;101213.03;;;20.52
84354;BMP280;74538;43.522;1.516;2023-12-20T10:36:31;101209.19;;;20.53
84354;BMP280;74538;43.522;1.516;2023-12-20T10:38:57;101198.75;;;20.55
84354;BMP280;74538;43.522;1.516;2023-12-20T10:41:30;101200.56;;;20.58
84354;BMP280;74538;43.522;1.516;2023-12-20T10:43:59;101203.50;;;20.63
84354;BMP280;74538;43.522;1.516;2023-12-20T10:46:26;101201.03;;;20.69
84354;BMP280;74538;43.522;1.516;2023-12-20T10:48:53;101196.31;;;20.73
84354;BMP280;74538;43.522;1.516;2023-12-20T10:51:20;101186.94;;;20.77
84354;BMP280;74538;43.522;1.516;2023-12-20T10:53:47;101188.38;;;20.82
84354;BMP280;74538;43.522;1.516;2023-12-20T10:56:16;101191.72;;;20.86
84354;BMP280;74538;43.522;1.516;2023-12-20T10:58:43;101187.44;;;20.89
84354;BMP280;74538;43.522;1.516;2023-12-20T11:01:12;101192.72;;;20.92
84354;BMP280;74538;43.522;1.516;2023-12-20T11:03:38;101185.31;;;20.96
84354;BMP280;74538;43.522;1.516;2023-12-20T11:08:51;101190.50;;;21.03
84354;BMP280;74538;43.522;1.516;2023-12-20T11:11:39;101181.53;;;21.06
84354;BMP280;74538;43.522;1.516;2023-12-20T11:14:15;101187.56;;;21.10
84354;BMP280;74538;43.522;1.516;2023-12-20T11:16:42;101189.84;;;21.12
84354;BMP280;74538;43.522;1.516;2023-12-20T11:19:07;101180.88;;;21.15
84354;BMP280;74538;43.522;1.516;2023-12-20T11:21:33;101171.19;;;21.17
84354;BMP280;74538;43.522;1.516;2023-12-20T11:23:59;101162.69;;;21.19
84354;BMP280;74538;43.522;1.516;2023-12-20T11:26:29;101165.72;;;21.21
84354;BMP280;74538;43.522;1.516;2023-12-20T11:29:30;101170.97;;;21.25
84354;BMP280;74538;43.522;1.516;2023-12-20T11:32:01;101164.75;;;21.28
84354;BMP280;74538;43.522;1.516;2023-12-20T11:34:28;101156.22;;;21.29
84354;BMP280;74538;43.522;1.516;2023-12-20T11:37:00;101156.53;;;21.31
84354;BMP280;74538;43.522;1.516;2023-12-20T11:39:28;101161.81;;;21.35
84354;BMP280;74538;43.522;1.516;2023-12-20T11:41:56;101159.88;;;21.35
84354;BMP280;74538;43.522;1.516;2023-12-20T11:44:30;101157.06;;;21.39
84354;BMP280;74538;43.522;1.516;2023-12-20T11:46:55;101136.59;;;21.41
84354;BMP280;74538;43.522;1.516;2023-12-20T11:49:23;101151.13;;;21.44
84354;BMP280;74538;43.522;1.516;2023-12-20T11:51:49;101144.88;;;21.47
84354;BMP280;74538;43.522;1.516;2023-12-20T11:54:16;101146.38;;;21.48
84354;BMP280;74538;43.522;1.516;2023-12-20T11:56:41;101153.63;;;21.51
84354;BMP280;74538;43.522;1.516;2023-12-20T11:59:08;101140.13;;;21.51
84354;BMP280;74538;43.522;1.516;2023-12-20T12:01:34;101141.63;;;21.52
84354;BMP280;74538;43.522;1.516;2023-12-20T12:04:06;101145.53;;;21.51
84354;BMP280;74538;43.522;1.516;2023-12-20T12:06:32;101140.88;;;21.51
84354;BMP280;74538;43.522;1.516;2023-12-20T12:08:57;101156.31;;;21.51
84354;BMP280;74538;43.522;1.516;2023-12-20T12:11:23;101154.81;;;21.50
84354;BMP280;74538;43.522;1.516;2023-12-20T12:13:49;101156.00;;;21.49
84354;BMP280;74538;43.522;1.516;2023-12-20T12:16:18;101156.41;;;21.47
84354;BMP280;74538;43.522;1.516;2023-12-20T12:18:54;101164.97;;;21.46
84354;BMP280;74538;43.522;1.516;2023-12-20T12:21:20;101180.38;;;21.45
84354;BMP280;74538;43.522;1.516;2023-12-20T12:23:48;101157.72;;;21.43
84354;BMP280;74538;43.522;1.516;2023-12-20T12:26:13;101153.53;;;21.42
84354;BMP280;74538;43.522;1.516;2023-12-20T12:28:42;101157.41;;;21.41
84354;BMP280;74538;43.522;1.516;2023-12-20T12:31:09;101165.16;;;21.39
84354;BMP280;74538;43.522;1.516;2023-12-20T12:33:38;101174.44;;;21.38
84354;BMP280;74538;43.522;1.516;2023-12-20T12:36:05;101169.06;;;21.38
84354;BMP280;74538;43.522;1.516;2023-12-20T12:38:32;101171.44;;;21.36
84354;BMP280;74538;43.522;1.516;2023-12-20T12:40:58;101174.53;;;21.34
84354;BMP280;74538;43.522;1.516;2023-12-20T12:43:23;101174.97;;;21.33
84354;BMP280;74538;43.522;1.516;2023-12-20T12:45:49;101166.88;;;21.33
84354;BMP280;74538;43.522;1.516;2023-12-20T12:48:15;101165.78;;;21.30
84354;BMP280;74538;43.522;1.516;2023-12-20T12:50:40;101171.66;;;21.29
84354;BMP280;74538;43.522;1.516;2023-12-20T12:53:06;101168.94;;;21.29
84354;BMP280;74538;43.522;1.516;2023-12-20T12:55:31;101153.94;;;21.28
84354;BMP280;74538;43.522;1.516;2023-12-20T12:57:57;101157.84;;;21.27
84354;BMP280;74538;43.522;1.516;2023-12-20T13:00:22;101175.19;;;21.26
84354;BMP280;74538;43.522;1.516;2023-12-20T13:02:48;101187.16;;;21.25
84354;BMP280;74538;43.522;1.516;2023-12-20T13:05:13;101192.56;;;21.25
84354;BMP280;74538;43.522;1.516;2023-12-20T13:07:39;101192.22;;;21.23
84354;BMP280;74538;43.522;1.516;2023-12-20T13:10:05;101182.66;;;21.22
84354;BMP280;74538;43.522;1.516;2023-12-20T13:12:31;101195.78;;;21.20
84354;BMP280;74538;43.522;1.516;2023-12-20T13:14:57;101177.31;;;21.18
84354;BMP280;74538;43.522;1.516;2023-12-20T13:17:23;101185.41;;;21.18
84354;BMP280;74538;43.522;1.516;2023-12-20T13:19:48;101176.59;;;21.17
84354;BMP280;74538;43.522;1.516;2023-12-20T13:22:15;101174.31;;;21.16
84354;BMP280;74538;43.522;1.516;2023-12-20T13:24:40;101172.81;;;21.15
84354;BMP280;74538;43.522;1.516;2023-12-20T13:27:06;101177.44;;;21.14
84354;BMP280;74538;43.522;1.516;2023-12-20T13:29:31;101177.13;;;21.12
84354;BMP280;74538;43.522;1.516;2023-12-20T13:31:57;101187.16;;;21.12
84354;BMP280;74538;43.522;1.516;2023-12-20T13:34:22;101192.94;;;21.10
84354;BMP280;74538;43.522;1.516;2023-12-20T13:36:48;101190.69;;;21.09
84354;BMP280;74538;43.522;1.516;2023-12-20T13:39:16;101192.66;;;21.08
84354;BMP280;74538;43.522;1.516;2023-12-20T13:41:42;101199.97;;;21.08
84354;BMP280;74538;43.522;1.516;2023-12-20T13:44:07;101200.41;;;21.06
84354;BMP280;74538;43.522;1.516;2023-12-20T13:46:32;101203.09;;;21.06
84354;BMP280;74538;43.522;1.516;2023-12-20T13:48:58;101213.13;;;21.06
84354;BMP280;74538;43.522;1.516;2023-12-20T13:51:23;101198.91;;;21.05
84354;BMP280;74538;43.522;1.516;2023-12-20T13:53:49;101199.34;;;21.04